Time;durP1;ratioP1;P1;durP2;ratioP2;P2;SDS_P1;SDS_P2;PMS_P1;PMS_P2;Temp;Humidity;BMP_temperature;BMP_pressure;BME280_temperature;BME280_humidity;BME280_pressure;Samples;Min_cycle;Max_cycle;Signal;HPM_P1;HPM_P2
2022/02/27 00:01:41;;;;;;;13.27;3.80;;;;;;;6.51;58.69;101578.75;5092076;28;20060;-62
2022/02/27 00:04:08;;;;;;;10.63;3.47;;;;;;;6.54;58.69;101569.16;5092139;28;20048;-61
2022/02/27 00:06:35;;;;;;;16.35;3.55;;;;;;;6.54;58.74;101571.75;5091765;28;20180;-62
2022/02/27 00:09:02;;;;;;;9.73;3.10;;;;;;;6.54;58.85;101572.59;5092163;28;20058;-63
2022/02/27 00:11:28;;;;;;;11.20;2.80;;;;;;;6.53;58.81;101573.50;5091546;28;20040;-63
2022/02/27 00:13:55;;;;;;;11.93;3.28;;;;;;;6.52;58.68;101579.63;5091806;28;20048;-63
2022/02/27 00:16:22;;;;;;;14.45;3.60;;;;;;;6.51;59.09;101575.28;5090767;28;20048;-63
2022/02/27 00:18:48;;;;;;;9.68;2.83;;;;;;;6.51;58.94;101578.75;5091800;28;20074;-62
2022/02/27 00:21:15;;;;;;;12.77;3.90;;;;;;;6.50;58.71;101573.53;5091161;28;20044;-61
2022/02/27 00:23:41;;;;;;;9.30;2.40;;;;;;;6.50;58.85;101574.41;5091592;28;20389;-64
2022/02/27 00:26:08;;;;;;;11.07;3.72;;;;;;;6.51;59.15;101575.28;5090314;28;20097;-62
2022/02/27 00:28:35;;;;;;;11.55;2.78;;;;;;;6.52;59.08;101582.25;5091657;28;20048;-62
2022/02/27 00:31:06;;;;;;;9.63;3.00;;;;;;;6.52;59.18;101577.00;5091473;28;20513;-62
2022/02/27 00:33:33;;;;;;;7.85;2.70;;;;;;;6.51;58.90;101576.13;5091683;28;20054;-61
2022/02/27 00:36:00;;;;;;;12.80;3.00;;;;;;;6.53;58.97;101583.13;5091493;28;20051;-64
2022/02/27 00:38:26;;;;;;;10.52;2.88;;;;;;;6.52;59.08;101579.63;5091674;28;20048;-62
2022/02/27 00:40:53;;;;;;;8.50;2.80;;;;;;;6.52;59.00;101577.00;5090962;28;20641;-62
2022/02/27 00:43:20;;;;;;;10.13;2.50;;;;;;;6.52;58.84;101571.78;5090294;28;20072;-64
2022/02/27 00:45:46;;;;;;;8.10;2.33;;;;;;;6.52;59.10;101579.63;5090990;28;20113;-62
2022/02/27 00:48:13;;;;;;;9.63;2.65;;;;;;;6.50;58.89;101577.03;5091045;28;20047;-61
2022/02/27 00:50:43;;;;;;;11.98;2.35;;;;;;;6.51;59.16;101576.13;5091206;28;20064;-63
2022/02/27 00:53:14;;;;;;;9.88;2.42;;;;;;;6.51;58.85;101572.66;5090751;28;20071;-64
2022/02/27 00:55:41;;;;;;;9.52;2.50;;;;;;;6.52;59.10;101574.38;5090913;28;20113;-63
2022/02/27 00:58:07;;;;;;;14.25;2.40;;;;;;;6.50;58.69;101573.53;5090975;28;20044;-61
2022/02/27 01:00:34;;;;;;;13.35;2.60;;;;;;;6.50;58.81;101571.78;5089099;28;20428;-62
2022/02/27 01:03:02;;;;;;;9.63;2.67;;;;;;;6.49;58.67;101574.41;5088921;28;20055;-61
2022/02/27 01:05:29;;;;;;;10.80;2.83;;;;;;;6.47;58.77;101570.97;5089337;28;20416;-61
2022/02/27 01:07:55;;;;;;;11.40;2.42;;;;;;;6.47;59.11;101565.72;5090797;28;20532;-62
2022/02/27 01:10:22;;;;;;;11.48;2.35;;;;;;;6.45;58.86;101570.97;5091437;28;20184;-66
2022/02/27 01:12:48;;;;;;;10.07;2.55;;;;;;;6.43;58.78;101567.50;5090635;28;20385;-64
2022/02/27 01:15:16;;;;;;;14.18;2.33;;;;;;;6.41;58.94;101577.13;5090323;28;20044;-61
2022/02/27 01:17:42;;;;;;;7.13;2.47;;;;;;;6.41;59.22;101576.25;5090401;28;20044;-61
2022/02/27 01:20:10;;;;;;;17.27;3.05;;;;;;;6.38;59.17;101572.78;5090335;28;20044;-62
2022/02/27 01:22:37;;;;;;;8.65;2.95;;;;;;;6.36;59.07;101566.69;5089326;28;20119;-64
2022/02/27 01:25:05;;;;;;;11.20;3.20;;;;;;;6.34;58.92;101573.69;5089413;28;20047;-61
2022/02/27 01:27:32;;;;;;;12.80;3.35;;;;;;;6.33;59.23;101571.97;5089313;28;20040;-62
2022/02/27 01:29:59;;;;;;;11.40;3.30;;;;;;;6.31;59.32;101570.25;5089781;28;20044;-63
2022/02/27 01:32:26;;;;;;;12.60;2.80;;;;;;;6.29;59.16;101572.00;5090424;28;20048;-62
2022/02/27 01:34:53;;;;;;;11.30;2.97;;;;;;;6.27;58.84;101569.41;5090171;28;20101;-62
2022/02/27 01:37:20;;;;;;;12.80;3.83;;;;;;;6.24;58.86;101566.81;5090669;28;20485;-63
2022/02/27 01:39:46;;;;;;;13.25;3.45;;;;;;;6.22;59.34;101555.50;5072566;28;20093;-62
2022/02/27 01:42:15;;;;;;;11.45;3.65;;;;;;;6.17;58.92;101570.38;5090245;28;20070;-63
2022/02/27 01:44:44;;;;;;;12.77;3.33;;;;;;;6.16;59.11;101571.28;5088386;28;20059;-62
2022/02/27 01:47:12;;;;;;;9.45;3.10;;;;;;;6.12;59.41;101571.28;5089864;28;20070;-62
2022/02/27 01:49:40;;;;;;;17.23;3.33;;;;;;;6.09;59.18;101571.31;5094017;28;20055;-62
2022/02/27 01:52:07;;;;;;;11.20;3.53;;;;;;;6.07;59.32;101565.25;5094862;28;20121;-62
2022/02/27 01:54:34;;;;;;;10.25;3.00;;;;;;;6.05;59.47;101566.13;5093432;28;20109;-63
2022/02/27 01:57:01;;;;;;;10.57;3.10;;;;;;;6.02;59.29;101569.59;5094526;28;20569;-61
2022/02/27 01:59:28;;;;;;;12.82;3.42;;;;;;;5.99;59.23;101574.88;5093023;28;20044;-62
2022/02/27 02:01:55;;;;;;;17.10;3.65;;;;;;;5.96;59.40;101570.53;5093591;28;20048;-61
2022/02/27 02:04:22;;;;;;;10.73;3.08;;;;;;;5.94;59.48;101568.81;5094293;28;20090;-62
2022/02/27 02:06:50;;;;;;;13.38;3.13;;;;;;;5.89;59.44;101565.34;5094381;28;20055;-62
2022/02/27 02:09:16;;;;;;;12.75;3.55;;;;;;;5.87;59.72;101562.78;5094483;28;20117;-62
2022/02/27 02:11:44;;;;;;;14.82;3.80;;;;;;;5.84;59.64;101566.25;5094249;28;20052;-63
2022/02/27 02:14:11;;;;;;;11.55;3.40;;;;;;;5.82;59.91;101572.38;5094140;28;20052;-61
2022/02/27 02:16:52;;;;;;;14.95;3.63;;;;;;;5.75;59.54;101563.72;5093667;28;20052;-61
2022/02/27 02:19:21;;;;;;;12.93;3.40;;;;;;;5.78;59.97;101565.44;5092258;28;20056;-61
2022/02/27 02:21:51;;;;;;;11.07;2.97;;;;;;;5.75;59.85;101561.09;5093754;28;20048;-64
2022/02/27 02:24:19;;;;;;;9.55;3.40;;;;;;;5.75;60.14;101563.72;5092540;28;20054;-62
2022/02/27 02:26:49;;;;;;;12.48;2.97;;;;;;;5.75;59.99;101571.56;5091722;28;20044;-63
2022/02/27 02:29:18;;;;;;;9.65;3.30;;;;;;;5.74;60.20;101561.97;5092303;28;20044;-62
2022/02/27 02:31:47;;;;;;;9.23;2.95;;;;;;;5.73;60.43;101571.56;5092620;28;20051;-62
2022/02/27 02:34:17;;;;;;;9.15;3.10;;;;;;;5.73;59.81;101563.72;5092285;28;20062;-62
2022/02/27 02:36:44;;;;;;;7.88;3.10;;;;;;;5.72;60.13;101558.53;5089147;28;20420;-63
2022/02/27 02:39:14;;;;;;;12.48;3.17;;;;;;;5.71;60.07;101560.25;5073582;28;20049;-62
2022/02/27 02:41:41;;;;;;;12.57;2.80;;;;;;;5.69;60.10;101559.38;5088766;28;20052;-61
2022/02/27 02:44:09;;;;;;;9.35;3.03;;;;;;;5.68;60.27;101562.88;5073137;28;20056;-62
2022/02/27 02:46:36;;;;;;;14.02;3.55;;;;;;;5.67;60.10;101560.28;5088766;28;20513;-62
2022/02/27 02:49:04;;;;;;;11.00;3.08;;;;;;;5.64;60.13;101563.78;5072943;28;20044;-62
2022/02/27 02:51:30;;;;;;;12.10;3.42;;;;;;;5.63;60.15;101569.03;5085779;28;20056;-61
2022/02/27 02:53:57;;;;;;;12.55;3.53;;;;;;;5.59;60.06;101568.19;5092733;28;20040;-63
2022/02/27 02:56:24;;;;;;;12.32;3.88;;;;;;;5.57;60.03;101575.19;5093273;28;20113;-62
2022/02/27 02:58:51;;;;;;;11.52;3.30;;;;;;;5.53;60.01;101558.63;5093158;28;20052;-63
2022/02/27 03:01:19;;;;;;;10.95;3.53;;;;;;;5.50;60.06;101566.53;5092808;28;20114;-62
2022/02/27 03:03:47;;;;;;;11.80;3.33;;;;;;;5.47;60.24;101564.75;5093064;28;20506;-62
2022/02/27 03:06:14;;;;;;;15.40;3.97;;;;;;;5.46;60.44;101559.56;5092697;28;20056;-62
2022/02/27 03:08:42;;;;;;;15.88;3.67;;;;;;;5.42;60.21;101555.25;5092536;28;20060;-63
2022/02/27 03:11:10;;;;;;;12.02;3.50;;;;;;;5.41;60.48;101556.09;5091850;28;20127;-62
2022/02/27 03:13:37;;;;;;;10.35;3.90;;;;;;;5.39;60.22;101557.88;5093175;28;20059;-62
2022/02/27 03:16:05;;;;;;;12.77;3.10;;;;;;;5.38;60.58;101553.53;5091595;28;20492;-62
2022/02/27 03:18:32;;;;;;;10.40;3.17;;;;;;;5.37;60.78;101557.00;5092766;28;20135;-62
2022/02/27 03:20:59;;;;;;;10.60;3.10;;;;;;;5.35;60.75;101551.81;5092603;28;20101;-61
2022/02/27 03:23:27;;;;;;;6.35;2.10;;;;;;;5.34;60.61;101552.66;5091324;28;20054;-63
2022/02/27 03:25:54;;;;;;;15.82;3.00;;;;;;;5.34;60.72;101547.44;5091154;28;20533;-62
2022/02/27 03:28:20;;;;;;;11.38;2.92;;;;;;;5.36;60.90;101550.94;5092429;28;20048;-63
2022/02/27 03:30:47;;;;;;;11.40;2.58;;;;;;;5.35;60.78;101550.03;5091272;28;20052;-62
2022/02/27 03:33:14;;;;;;;6.93;2.50;;;;;;;5.35;60.91;101549.19;5092629;28;20056;-64
2022/02/27 03:35:41;;;;;;;10.20;2.92;;;;;;;5.36;60.67;101550.94;5092321;28;20048;-63
2022/02/27 03:38:11;;;;;;;13.68;2.60;;;;;;;5.36;60.53;101540.47;5091479;28;20048;-62
2022/02/27 03:40:37;;;;;;;9.63;3.10;;;;;;;5.35;60.71;101549.19;5091073;28;20055;-61
2022/02/27 03:43:04;;;;;;;10.98;2.50;;;;;;;5.34;60.66;101545.72;5092344;28;20072;-62
2022/02/27 03:45:31;;;;;;;6.15;2.08;;;;;;;5.34;60.72;101547.44;5092184;28;20048;-61
2022/02/27 03:47:58;;;;;;;11.77;2.75;;;;;;;5.33;60.63;101550.94;5092193;28;20137;-63
2022/02/27 03:50:24;;;;;;;11.18;2.53;;;;;;;5.32;60.70;101547.47;5091843;28;20112;-63
2022/02/27 03:52:51;;;;;;;8.07;2.70;;;;;;;5.31;60.86;101550.09;5092417;28;20048;-62
2022/02/27 03:55:18;;;;;;;15.02;2.95;;;;;;;5.30;60.73;101554.44;5092254;28;20132;-62
2022/02/27 03:57:44;;;;;;;14.02;2.97;;;;;;;5.29;60.84;101544.88;5091080;28;20048;-64
2022/02/27 04:00:14;;;;;;;10.07;2.80;;;;;;;5.27;60.63;101549.22;5091581;28;20484;-62
2022/02/27 04:02:45;;;;;;;10.85;2.65;;;;;;;5.26;60.71;101547.50;5090360;28;20063;-62
2022/02/27 04:05:14;;;;;;;13.23;3.00;;;;;;;5.25;60.36;101544.88;5090558;28;20058;-61
2022/02/27 04:07:41;;;;;;;14.43;2.78;;;;;;;5.22;60.75;101551.88;5090615;28;20059;-64
2022/02/27 04:10:09;;;;;;;12.52;2.70;;;;;;;5.19;60.77;101551.88;5091389;28;20048;-61
2022/02/27 04:12:36;;;;;;;6.97;2.72;;;;;;;5.17;60.80;101547.56;5090519;28;20674;-62
2022/02/27 04:15:04;;;;;;;13.57;3.72;;;;;;;5.15;60.75;101546.69;5091615;28;20070;-63
2022/02/27 04:17:31;;;;;;;10.63;3.15;;;;;;;5.11;60.72;101548.44;5090360;28;20109;-64
2022/02/27 04:19:58;;;;;;;17.92;4.80;;;;;;;5.09;60.99;101550.22;5091814;28;20114;-62
2022/02/27 04:22:28;;;;;;;15.40;4.57;;;;;;;5.03;60.39;101543.28;5090523;28;20056;-62
2022/02/27 04:24:55;;;;;;;16.35;4.45;;;;;;;4.99;60.47;101541.56;5090407;28;20146;-63
2022/02/27 04:27:24;;;;;;;15.07;5.30;;;;;;;4.93;60.64;101537.22;5091703;28;20495;-64
2022/02/27 04:29:51;;;;;;;12.65;5.10;;;;;;;4.89;60.86;101534.63;5091745;28;20056;-62
2022/02/27 04:32:18;;;;;;;12.25;5.18;;;;;;;4.82;60.94;101545.09;5091408;28;20129;-62
2022/02/27 04:34:44;;;;;;;15.00;4.97;;;;;;;4.78;60.97;101539.88;5091539;28;20055;-62
2022/02/27 04:37:11;;;;;;;13.45;5.43;;;;;;;4.73;61.14;101539.03;5091264;28;20048;-63
2022/02/27 04:39:37;;;;;;;14.18;5.47;;;;;;;4.68;61.08;101537.31;5091057;28;20048;-62
2022/02/27 04:42:05;;;;;;;16.70;5.25;;;;;;;4.65;61.20;101542.56;5090740;28;20044;-62
2022/02/27 04:44:32;;;;;;;15.32;5.80;;;;;;;4.61;61.27;101542.56;5089617;28;20048;-62
2022/02/27 04:46:59;;;;;;;20.15;5.85;;;;;;;4.57;61.25;101542.56;5090747;28;20052;-63
2022/02/27 04:49:26;;;;;;;17.33;5.60;;;;;;;4.53;61.42;101542.59;5089418;28;20109;-64
2022/02/27 04:51:53;;;;;;;19.00;5.72;;;;;;;4.49;61.58;101546.94;5091136;28;20044;-61
2022/02/27 04:54:20;;;;;;;18.50;6.03;;;;;;;4.46;61.51;101544.34;5090958;28;20516;-63
2022/02/27 04:56:47;;;;;;;13.93;6.10;;;;;;;4.43;61.62;101531.31;5089744;28;20113;-62
2022/02/27 04:59:14;;;;;;;15.85;5.60;;;;;;;4.38;61.65;101539.13;5089006;28;20044;-63
2022/02/27 05:01:41;;;;;;;16.73;6.55;;;;;;;4.35;61.87;101538.28;5090627;28;20109;-61
2022/02/27 05:04:08;;;;;;;16.35;5.60;;;;;;;4.33;61.83;101543.50;5089157;28;20040;-62
2022/02/27 05:06:36;;;;;;;16.08;5.55;;;;;;;4.31;62.13;101547.88;5089468;28;20048;-62
2022/02/27 05:09:03;;;;;;;12.57;5.68;;;;;;;4.29;62.39;101539.16;5089654;28;20052;-61
2022/02/27 05:11:30;;;;;;;14.43;5.68;;;;;;;4.28;62.00;101545.25;5089493;28;20060;-60
2022/02/27 05:13:56;;;;;;;15.07;5.82;;;;;;;4.27;62.23;101548.75;5091200;28;20113;-62
2022/02/27 05:16:23;;;;;;;15.45;6.25;;;;;;;4.25;61.94;101543.53;5088378;28;20079;-62
2022/02/27 05:18:52;;;;;;;18.80;6.05;;;;;;;4.25;62.30;101547.84;5090263;28;20052;-61
2022/02/27 05:21:22;;;;;;;19.65;5.75;;;;;;;4.20;62.12;101542.66;5088925;28;20051;-63
2022/02/27 05:23:49;;;;;;;16.30;5.93;;;;;;;4.19;62.40;101546.16;5087262;28;20055;-63
2022/02/27 05:26:16;;;;;;;14.25;5.65;;;;;;;4.17;62.39;101545.28;5088329;28;20059;-61
2022/02/27 05:28:44;;;;;;;12.23;5.13;;;;;;;4.15;62.19;101542.66;5088466;28;20083;-61
2022/02/27 05:31:11;;;;;;;12.65;6.05;;;;;;;4.14;62.46;101551.34;5088839;28;20036;-63
2022/02/27 05:33:38;;;;;;;14.98;5.50;;;;;;;4.12;62.68;101552.22;5088421;28;20071;-63
2022/02/27 05:36:06;;;;;;;13.57;4.93;;;;;;;4.12;62.45;101552.22;5088206;28;20420;-62
2022/02/27 05:38:33;;;;;;;14.23;5.78;;;;;;;4.10;62.72;101549.63;5090208;28;20883;-62
2022/02/27 05:40:59;;;;;;;13.65;5.55;;;;;;;4.11;62.81;101550.50;5088590;28;20054;-62
2022/02/27 05:43:26;;;;;;;15.25;5.35;;;;;;;4.08;62.54;101551.38;5088844;28;20093;-61
2022/02/27 05:45:53;;;;;;;12.23;5.78;;;;;;;4.07;62.55;101556.59;5089859;28;20116;-64
2022/02/27 05:48:20;;;;;;;18.77;5.75;;;;;;;4.04;62.68;101553.09;5089924;28;20050;-61
2022/02/27 05:50:49;;;;;;;11.95;6.15;;;;;;;4.02;62.48;101567.88;5089757;28;20056;-63
2022/02/27 05:53:16;;;;;;;16.02;6.10;;;;;;;4.00;62.45;101556.56;5090229;28;20527;-61
2022/02/27 05:55:42;;;;;;;15.57;5.70;;;;;;;3.97;62.33;101561.81;5090100;28;20048;-61
2022/02/27 05:58:09;;;;;;;17.88;7.18;;;;;;;3.93;62.35;101562.69;5089861;28;20078;-64
2022/02/27 06:00:35;;;;;;;19.50;6.22;;;;;;;3.91;62.51;101570.50;5089380;28;20040;-64
2022/02/27 06:03:02;;;;;;;16.15;5.82;;;;;;;3.89;62.77;101576.56;5089697;28;20066;-61
2022/02/27 06:05:29;;;;;;;17.55;6.78;;;;;;;3.86;62.81;101579.16;5089964;28;20063;-65
2022/02/27 06:07:56;;;;;;;14.07;5.75;;;;;;;3.83;62.98;101571.34;5071781;28;20048;-62
2022/02/27 06:10:23;;;;;;;16.60;6.85;;;;;;;3.80;62.89;101571.31;5088864;28;20059;-61
2022/02/27 06:12:50;;;;;;;16.13;6.78;;;;;;;3.77;63.07;101567.88;5090250;28;20093;-65
2022/02/27 06:15:17;;;;;;;14.25;6.72;;;;;;;3.75;62.97;101567.00;5088737;28;20044;-61
2022/02/27 06:17:44;;;;;;;16.80;6.35;;;;;;;3.72;63.12;101574.81;5088563;28;20044;-62
2022/02/27 06:20:11;;;;;;;13.98;6.25;;;;;;;3.68;63.12;101567.88;5089536;28;20101;-62
2022/02/27 06:22:49;;;;;;;14.77;5.97;;;;;;;3.61;63.20;101569.59;5090132;28;20047;-63
2022/02/27 06:25:17;;;;;;;12.93;6.43;;;;;;;3.62;63.25;101565.22;5089960;28;20044;-63
2022/02/27 06:27:45;;;;;;;11.48;6.38;;;;;;;3.59;63.50;101573.91;5088925;28;20048;-62
2022/02/27 06:30:17;;;;;;;16.52;6.05;;;;;;;3.57;63.18;101574.78;5088502;28;20065;-62
2022/02/27 06:32:49;;;;;;;11.52;5.57;;;;;;;3.56;63.40;101573.94;5089748;28;20052;-62
2022/02/27 06:35:20;;;;;;;17.17;5.55;;;;;;;3.54;63.08;101575.66;5092940;28;20051;-63
2022/02/27 06:37:47;;;;;;;18.27;6.07;;;;;;;3.53;63.43;101581.72;5092722;28;20055;-61
2022/02/27 06:40:14;;;;;;;19.02;6.10;;;;;;;3.51;63.76;101584.31;5091933;28;20492;-64
2022/02/27 06:42:42;;;;;;;14.27;5.72;;;;;;;3.50;63.52;101581.72;5091865;28;20434;-63
2022/02/27 06:45:10;;;;;;;13.18;5.05;;;;;;;3.50;63.86;101590.41;5092072;28;20051;-62
2022/02/27 06:47:36;;;;;;;15.55;5.82;;;;;;;3.52;63.62;101588.66;5093238;28;20112;-63
2022/02/27 06:50:04;;;;;;;12.00;5.18;;;;;;;3.52;63.72;101595.63;5092899;28;20051;-62
2022/02/27 06:52:32;;;;;;;10.25;4.97;;;;;;;3.51;63.47;101592.13;5090999;28;20554;-62
2022/02/27 06:54:58;;;;;;;11.77;4.97;;;;;;;3.52;63.94;101599.06;5091142;28;20048;-61
2022/02/27 06:57:25;;;;;;;11.68;5.38;;;;;;;3.55;63.78;101599.97;5093079;28;20055;-62
2022/02/27 06:59:52;;;;;;;10.77;4.38;;;;;;;3.56;64.06;101597.38;5092779;28;20530;-61
2022/02/27 07:02:19;;;;;;;12.25;5.07;;;;;;;3.58;64.05;101598.22;5092814;28;20139;-61
2022/02/27 07:04:46;;;;;;;16.60;5.15;;;;;;;3.61;63.93;101599.97;5093041;28;20052;-61
2022/02/27 07:07:13;;;;;;;10.40;4.47;;;;;;;3.62;63.90;101594.75;5092490;28;20102;-63
2022/02/27 07:09:39;;;;;;;10.60;4.32;;;;;;;3.64;63.97;101607.78;5092139;28;20056;-62
2022/02/27 07:12:06;;;;;;;12.63;5.40;;;;;;;3.67;64.01;101604.31;5092742;28;20077;-61
2022/02/27 07:14:33;;;;;;;16.02;6.00;;;;;;;3.68;63.92;101604.31;5091227;28;20105;-62
2022/02/27 07:16:59;;;;;;;8.88;4.70;;;;;;;3.71;64.10;101603.47;5092802;28;20052;-61
2022/02/27 07:19:32;;;;;;;16.70;5.07;;;;;;;3.72;63.90;101605.19;5092505;28;20480;-62
2022/02/27 07:21:59;;;;;;;9.50;4.38;;;;;;;3.74;63.99;101606.94;5092766;28;20040;-62
2022/02/27 07:24:26;;;;;;;12.98;5.00;;;;;;;3.77;63.97;101608.66;5092671;28;20040;-62
2022/02/27 07:26:52;;;;;;;10.25;4.57;;;;;;;3.79;63.89;101609.56;5092639;28;20048;-62
2022/02/27 07:29:19;;;;;;;12.30;4.95;;;;;;;3.80;63.72;101603.47;5091091;28;20145;-61
2022/02/27 07:31:45;;;;;;;10.23;4.82;;;;;;;3.82;63.93;101598.25;5091158;28;20481;-62
2022/02/27 07:34:12;;;;;;;11.85;5.18;;;;;;;3.84;63.68;101609.53;5092248;28;20117;-62
2022/02/27 07:36:39;;;;;;;12.88;4.53;;;;;;;3.86;63.95;101602.63;5092308;28;20098;-62
2022/02/27 07:39:06;;;;;;;7.68;4.40;;;;;;;3.87;63.76;101602.63;5092329;28;20490;-66
2022/02/27 07:41:33;;;;;;;13.45;4.90;;;;;;;3.91;64.16;101608.69;5090727;28;20052;-61
2022/02/27 07:43:59;;;;;;;12.30;4.70;;;;;;;3.94;64.20;101616.50;5091835;28;20047;-61
2022/02/27 07:46:26;;;;;;;9.88;4.40;;;;;;;3.97;64.01;101613.94;5090842;28;20040;-62
2022/02/27 07:48:53;;;;;;;10.75;4.03;;;;;;;4.01;64.05;101614.78;5092011;28;20093;-63
2022/02/27 07:51:24;;;;;;;10.57;4.07;;;;;;;4.04;64.23;101620.84;5092076;28;20083;-63
2022/02/27 07:53:50;;;;;;;10.27;4.57;;;;;;;4.08;64.04;101623.47;5092043;28;20097;-62
2022/02/27 07:56:17;;;;;;;10.68;4.07;;;;;;;4.11;64.05;101623.47;5090665;28;20488;-61
2022/02/27 07:58:44;;;;;;;12.07;4.05;;;;;;;4.14;63.92;101629.56;5090351;28;20118;-63
2022/02/27 08:01:10;;;;;;;8.70;4.00;;;;;;;4.19;64.10;101633.91;5091334;28;20496;-61
2022/02/27 08:03:38;;;;;;;10.38;4.13;;;;;;;4.22;64.29;101632.16;5091753;28;20733;-63
2022/02/27 08:06:04;;;;;;;8.48;4.40;;;;;;;4.25;64.18;101628.66;5091832;28;20044;-62
2022/02/27 08:08:33;;;;;;;9.35;4.88;;;;;;;4.29;63.94;101622.59;5091707;28;20055;-61
2022/02/27 08:11:00;;;;;;;10.63;4.20;;;;;;;4.33;64.02;101620.88;5090373;28;20067;-64
2022/02/27 08:13:27;;;;;;;15.77;4.78;;;;;;;4.36;63.86;101621.72;5092254;28;20044;-61
2022/02/27 08:15:58;;;;;;;12.48;4.45;;;;;;;4.41;63.75;101621.72;5091834;28;20096;-62
2022/02/27 08:18:28;;;;;;;8.10;4.30;;;;;;;4.43;63.82;101619.97;5089900;28;20071;-62
2022/02/27 08:20:55;;;;;;;10.00;4.32;;;;;;;4.48;64.08;101628.66;5091235;28;20101;-62
2022/02/27 08:23:22;;;;;;;10.23;4.50;;;;;;;4.51;64.06;101622.56;5091260;28;20052;-62
2022/02/27 08:25:50;;;;;;;9.80;4.40;;;;;;;4.54;63.87;101620.84;5090296;28;20055;-62
2022/02/27 08:28:17;;;;;;;12.95;4.95;;;;;;;4.58;63.93;101619.09;5091688;28;20446;-62
2022/02/27 08:30:44;;;;;;;12.38;4.28;;;;;;;4.63;63.69;101619.09;5091077;28;20048;-61
2022/02/27 08:33:10;;;;;;;10.30;4.63;;;;;;;4.66;63.84;101616.44;5090004;28;20098;-64
2022/02/27 08:35:37;;;;;;;12.45;4.05;;;;;;;4.69;64.19;101619.94;5091065;28;20462;-62
2022/02/27 08:38:04;;;;;;;15.77;4.75;;;;;;;4.72;63.75;101624.28;5091208;28;20040;-62
2022/02/27 08:40:31;;;;;;;12.40;4.63;;;;;;;4.77;63.96;101606.88;5090129;28;20052;-63
2022/02/27 08:43:00;;;;;;;9.45;4.63;;;;;;;4.81;63.83;101615.53;5091566;28;20056;-62
2022/02/27 08:45:28;;;;;;;12.68;4.22;;;;;;;4.85;64.07;101617.28;5090390;28;20112;-62
2022/02/27 08:47:55;;;;;;;13.02;4.28;;;;;;;4.90;63.79;101609.44;5090997;28;20078;-61
2022/02/27 08:50:22;;;;;;;11.55;4.25;;;;;;;4.95;63.98;101615.50;5089362;28;20557;-62
2022/02/27 08:52:49;;;;;;;10.25;4.47;;;;;;;4.98;64.02;101605.06;5090903;28;20119;-62
2022/02/27 08:55:16;;;;;;;8.63;4.10;;;;;;;5.02;63.72;101609.41;5091315;28;20055;-61
2022/02/27 08:57:44;;;;;;;12.68;4.18;;;;;;;5.08;63.93;101614.59;5088982;28;20052;-61
2022/02/27 09:00:14;;;;;;;13.27;4.80;;;;;;;5.13;63.89;101613.69;5090456;28;20044;-64
2022/02/27 09:02:44;;;;;;;12.60;4.85;;;;;;;5.19;64.00;101613.66;5090868;28;20110;-62
2022/02/27 09:05:11;;;;;;;9.40;4.38;;;;;;;5.25;63.83;101611.03;5089515;28;20072;-61
2022/02/27 09:07:38;;;;;;;11.60;4.30;;;;;;;5.31;64.02;101605.78;5089879;28;20185;-61
2022/02/27 09:10:08;;;;;;;9.88;4.28;;;;;;;5.37;63.52;101609.22;5090225;28;20458;-62
2022/02/27 09:12:35;;;;;;;10.43;4.57;;;;;;;5.44;64.01;101595.25;5090496;28;20090;-62
2022/02/27 09:15:02;;;;;;;11.57;4.60;;;;;;;5.51;64.01;101594.38;5089963;28;20047;-62
2022/02/27 09:17:29;;;;;;;10.10;4.30;;;;;;;5.57;63.68;101602.16;5090382;28;20485;-61
2022/02/27 09:19:55;;;;;;;12.02;4.70;;;;;;;5.65;63.62;101599.50;5090571;28;20063;-63
2022/02/27 09:22:22;;;;;;;10.05;3.97;;;;;;;5.73;63.87;101599.44;5090710;28;20457;-62
2022/02/27 09:24:49;;;;;;;10.93;4.18;;;;;;;5.82;63.85;101607.22;5090591;28;20135;-62
2022/02/27 09:27:16;;;;;;;9.95;3.47;;;;;;;5.91;64.08;101605.41;5090388;28;20052;-63
2022/02/27 09:29:42;;;;;;;10.18;4.00;;;;;;;5.99;63.61;101608.84;5089801;28;20393;-62
2022/02/27 09:32:09;;;;;;;6.47;3.97;;;;;;;6.09;63.53;101605.28;5090223;28;20105;-62
2022/02/27 09:34:36;;;;;;;10.30;3.70;;;;;;;6.19;63.26;101597.38;5090577;28;20056;-63
2022/02/27 09:37:02;;;;;;;11.15;3.35;;;;;;;6.28;63.22;101602.50;5090693;28;20044;-61
2022/02/27 09:39:31;;;;;;;8.25;3.78;;;;;;;6.37;63.21;101604.19;5090347;28;20438;-62
2022/02/27 09:41:58;;;;;;;5.63;3.38;;;;;;;6.45;62.97;101605.00;5090299;28;20051;-61
2022/02/27 09:44:25;;;;;;;9.95;3.63;;;;;;;6.54;63.03;101601.38;5088059;28;20679;-62
2022/02/27 09:46:57;;;;;;;13.18;3.58;;;;;;;6.63;62.78;101598.72;5090054;28;20086;-62
2022/02/27 09:49:23;;;;;;;9.52;3.60;;;;;;;6.72;62.84;101604.69;5090058;28;20048;-62
2022/02/27 09:51:50;;;;;;;6.90;3.20;;;;;;;6.82;62.77;101598.50;5090286;28;20143;-63
2022/02/27 09:54:17;;;;;;;12.60;3.80;;;;;;;6.93;62.61;101602.72;5090272;28;20113;-62
2022/02/27 09:56:43;;;;;;;7.97;3.17;;;;;;;7.02;62.25;101593.00;5089793;28;20094;-63
2022/02/27 09:59:10;;;;;;;10.40;3.83;;;;;;;7.13;62.44;101594.63;5087248;28;20051;-62
2022/02/27 10:01:58;;;;;;;8.20;3.28;;;;;;;7.21;60.11;101595.38;5089620;28;20125;-63
2022/02/27 10:04:25;;;;;;;7.65;3.22;;;;;;;7.33;61.56;101583.88;5088885;28;20055;-61
2022/02/27 10:06:52;;;;;;;6.35;3.38;;;;;;;7.42;61.38;101604.72;5090005;28;20048;-61
2022/02/27 10:09:23;;;;;;;7.30;3.50;;;;;;;7.50;59.22;101601.13;5090869;28;20048;-61
2022/02/27 10:12:11;;;;;;;7.22;3.58;;;;;;;7.59;58.87;101597.50;5092325;28;20048;-62
2022/02/27 10:14:38;;;;;;;9.73;2.70;;;;;;;7.71;60.50;101597.31;5092662;28;20055;-63
2022/02/27 10:17:05;;;;;;;6.25;2.83;;;;;;;7.80;60.61;101597.19;5094073;28;20048;-61
2022/02/27 10:19:39;;;;;;;10.30;3.63;;;;;;;7.89;60.38;101584.81;5092926;28;20044;-62
2022/02/27 10:22:08;;;;;;;10.45;3.00;;;;;;;8.00;60.28;101600.38;5092654;28;20438;-62
2022/02/27 10:24:36;;;;;;;10.38;3.00;;;;;;;8.08;60.17;101601.13;5094052;28;20048;-64
2022/02/27 10:27:11;;;;;;;6.95;3.40;;;;;;;8.19;58.54;101595.69;5092485;28;20557;-63
2022/02/27 10:29:38;;;;;;;10.70;3.63;;;;;;;8.32;60.33;101593.69;5093517;28;20092;-62
2022/02/27 10:32:05;;;;;;;10.20;3.30;;;;;;;8.42;59.85;101587.41;5093228;28;20052;-61
2022/02/27 10:34:38;;;;;;;9.10;3.72;;;;;;;8.52;57.36;101595.97;5093144;28;20051;-62
2022/02/27 10:37:10;;;;;;;6.18;2.97;;;;;;;8.65;59.48;101590.50;5093534;28;20044;-63
2022/02/27 10:39:43;;;;;;;10.15;3.13;;;;;;;8.76;58.29;101588.56;5092502;28;20181;-62
2022/02/27 10:42:27;;;;;;;5.53;2.55;;;;;;;8.86;58.20;101587.47;5091032;28;20101;-63
2022/02/27 10:45:04;;;;;;;5.00;2.72;;;;;;;9.03;58.88;101588.00;5092036;28;20139;-63
2022/02/27 10:47:36;;;;;;;6.45;3.28;;;;;;;9.17;57.80;101598.22;5091620;28;20040;-62
2022/02/27 10:50:09;;;;;;;6.97;2.87;;;;;;;9.29;57.99;101581.31;5091623;28;20102;-62
2022/02/27 10:52:43;;;;;;;5.53;2.53;;;;;;;9.42;57.42;101585.41;5092040;28;20420;-64
2022/02/27 10:55:10;;;;;;;5.55;2.47;;;;;;;9.56;58.76;101581.59;5092046;28;20251;-70
2022/02/27 10:57:45;;;;;;;5.63;2.65;;;;;;;9.64;56.92;101570.00;5091749;28;20097;-63
2022/02/27 11:00:22;;;;;;;11.82;3.17;;;;;;;9.77;55.80;101573.19;5091637;28;20076;-64
2022/02/27 11:02:59;;;;;;;4.35;2.42;;;;;;;9.89;56.10;101577.31;5091856;28;20066;-63
2022/02/27 11:05:28;;;;;;;6.70;2.40;;;;;;;10.02;56.96;101569.97;5093108;28;20078;-64
2022/02/27 11:07:58;;;;;;;6.88;2.70;;;;;;;10.13;56.88;101569.69;5090867;28;20048;-62
2022/02/27 11:10:27;;;;;;;6.45;2.45;;;;;;;10.23;56.48;101565.06;5091524;28;20048;-62
2022/02/27 11:12:57;;;;;;;7.47;2.20;;;;;;;10.31;55.29;101556.94;5091875;28;20048;-62
2022/02/27 11:15:24;;;;;;;6.22;2.65;;;;;;;10.41;56.24;101558.44;5091483;28;20052;-62
2022/02/27 11:17:51;;;;;;;4.88;2.40;;;;;;;10.50;56.17;101559.13;5092832;28;20048;-64
2022/02/27 11:20:20;;;;;;;5.72;2.72;;;;;;;10.60;55.11;101555.31;5092644;28;20041;-62
2022/02/27 11:22:48;;;;;;;4.50;2.30;;;;;;;10.71;55.02;101562.03;5091878;28;20052;-63
2022/02/27 11:25:16;;;;;;;4.95;2.30;;;;;;;10.78;55.17;101546.03;5091593;28;20040;-62
2022/02/27 11:27:50;;;;;;;6.57;2.35;;;;;;;10.87;53.34;101544.88;5092797;28;20052;-62
2022/02/27 11:30:29;;;;;;;4.45;2.60;;;;;;;10.97;52.53;101540.22;5070948;28;20064;-62